Portada
METAR-TAF:

METAR-TAF

Aeropuertos :

Grootfontein, Namibia

latitud: 19-36S, longitud: 018-07E, altitud: 1411 m

Observación

El informe se hizo hace 1 hora y 48 minutos, a las 13:00 UTC
Viento 4 kt del norte-noreste
Temperatura 33°C
Humedad 11%
Presión 1021 hPa
Visibilidad 10 km o más
sin nubes por debajo de 1500 m y sin presencia de cumulonimbus.

METAR: FYGF 251300Z 03004KT CAVOK 33/M01 Q1021

Hora: 16:48 (14:48 UTC)

Pronóstico

El informe se hizo hace 48 minutos, a las 14:00 UTC
Pronóstico válido del 25 a las 15 UTC al 25 a las 24 UTC
Viento 6 kt del este
Visibilidad 10 km o más
sin nubes por debajo de 1500 m y sin presencia de cumulonimbus.

TAF: FYGF 251400Z 2515/2524 10006KT CAVOK

Observaciones y pronósticos meteorológicos de más de 4000 aeropuertos (mensajes METAR y TAF).

Los puntos amarillos y rojos representan las estaciones disponibles.

Ponga el ratón en el punto deseado para ver el nombre de la estación.

Haga clic para ver las observaciones y los pronósticos meteorológicos.

Para cambiar el mapa : haga clic en los botones verdes con una cruz de color negro para hacer un zoom, en el botón verde con un guión para alejar o en las flechas verdes para mapas adyacentes.


METAR-TAF: